Time;durP1;ratioP1;P1;durP2;ratioP2;P2;SDS_P1;SDS_P2;PMS_P1;PMS_P2;Temp;Humidity;BMP_temperature;BMP_pressure;BME280_temperature;BME280_humidity;BME280_pressure;Samples;Min_cycle;Max_cycle;Signal;HPM_P1;HPM_P2
2021/03/01 00:02:07;;;;;;;20.63;9.15;;;;;;;5.51;46.82;99441.94;10671463;27;20133;-53
2021/03/01 00:07:09;;;;;;;24.75;10.23;;;;;;;5.51;47.02;99449.75;10671445;27;20899;-52
2021/03/01 00:12:11;;;;;;;22.02;10.80;;;;;;;5.43;47.29;99446.00;10671047;27;20093;-56
2021/03/01 00:17:14;;;;;;;20.40;9.35;;;;;;;5.34;47.31;99452.66;10671001;27;20039;-55
2021/03/01 00:22:16;;;;;;;20.20;10.80;;;;;;;5.32;47.50;99463.19;10670768;27;20117;-54
2021/03/01 00:27:17;;;;;;;20.10;10.40;;;;;;;5.35;47.02;99454.31;10652052;27;20047;-55
2021/03/01 00:32:20;;;;;;;23.63;11.70;;;;;;;5.35;47.18;99462.16;10670493;27;20077;-54
2021/03/01 00:37:22;;;;;;;22.95;11.57;;;;;;;5.42;47.20;99470.38;10670686;27;20050;-53
2021/03/01 00:42:24;;;;;;;19.50;10.85;;;;;;;5.51;46.90;99481.06;10651884;27;20146;-52
2021/03/01 00:47:26;;;;;;;17.05;9.23;;;;;;;5.59;47.25;99479.69;10669325;27;20133;-53
2021/03/01 00:52:28;;;;;;;21.13;8.88;;;;;;;5.71;46.65;99484.06;10669408;27;20799;-53
2021/03/01 00:57:30;;;;;;;18.92;9.35;;;;;;;5.70;46.78;99474.59;10668596;27;20771;-56
2021/03/01 01:02:32;;;;;;;15.43;8.25;;;;;;;5.73;46.89;99496.06;10651324;27;20070;-55
2021/03/01 01:07:54;;;;;;;20.77;9.35;;;;;;;5.80;46.70;99483.44;10668905;27;20091;-53
2021/03/01 01:12:55;;;;;;;18.75;9.48;;;;;;;5.68;46.64;99484.28;10669126;27;20532;-53
2021/03/01 01:17:58;;;;;;;18.30;10.07;;;;;;;5.49;47.12;99489.91;10669689;27;20042;-57
2021/03/01 01:23:02;;;;;;;17.65;9.68;;;;;;;5.54;47.16;99508.66;10670080;27;20038;-52
2021/03/01 01:28:04;;;;;;;21.75;11.32;;;;;;;5.55;47.48;99512.97;10669478;27;20061;-58
2021/03/01 01:33:07;;;;;;;20.55;10.23;;;;;;;5.53;47.28;99507.84;10669064;27;20046;-55
2021/03/01 01:38:08;;;;;;;21.42;9.20;;;;;;;5.44;47.32;99500.63;10667925;27;20195;-55
2021/03/01 01:43:10;;;;;;;19.10;8.85;;;;;;;5.42;47.91;99520.78;10666382;27;20125;-53
2021/03/01 01:48:13;;;;;;;17.42;8.70;;;;;;;5.49;47.64;99523.81;10671635;27;20082;-53
2021/03/01 01:53:14;;;;;;;20.23;10.50;;;;;;;5.50;47.38;99523.69;10666836;27;20039;-52
2021/03/01 01:58:16;;;;;;;17.60;10.05;;;;;;;5.45;47.23;99523.19;10666932;27;20403;-52
2021/03/01 02:03:42;;;;;;;20.60;10.82;;;;;;;5.37;47.90;99514.19;10667303;27;20408;-53
2021/03/01 02:09:01;;;;;;;22.27;11.38;;;;;;;5.28;48.20;99520.84;10666697;27;20065;-53
2021/03/01 02:14:14;;;;;;;26.35;11.05;;;;;;;5.17;48.42;99518.09;10666587;27;20038;-53
2021/03/01 02:19:20;;;;;;;23.10;12.20;;;;;;;5.18;47.85;99515.41;10666337;27;20414;-53
2021/03/01 02:24:27;;;;;;;19.27;10.05;;;;;;;5.11;48.06;99514.16;10666901;27;20045;-54
2021/03/01 02:29:29;;;;;;;22.83;11.50;;;;;;;5.03;48.20;99527.66;10666214;27;20200;-53
2021/03/01 02:34:35;;;;;;;26.15;11.55;;;;;;;4.94;48.09;99536.06;10666681;27;20035;-52
2021/03/01 02:39:43;;;;;;;22.75;10.27;;;;;;;4.89;48.71;99534.69;10626550;27;20391;-52
2021/03/01 02:44:46;;;;;;;21.88;10.57;;;;;;;4.92;48.20;99543.16;10624071;28;20047;-54
2021/03/01 02:49:48;;;;;;;21.00;10.38;;;;;;;4.98;48.74;99540.16;10605424;28;20134;-54
2021/03/01 02:54:52;;;;;;;17.58;10.18;;;;;;;5.01;48.40;99541.72;10622802;28;20071;-52
2021/03/01 02:59:56;;;;;;;16.63;9.02;;;;;;;5.03;48.41;99540.69;10630145;27;20440;-53
2021/03/01 03:05:00;;;;;;;21.40;10.80;;;;;;;5.05;48.34;99536.22;10665704;27;20387;-54
2021/03/01 03:10:04;;;;;;;17.33;8.13;;;;;;;4.84;48.84;99542.81;10665281;27;20054;-53
2021/03/01 03:15:09;;;;;;;18.65;8.23;;;;;;;4.72;49.25;99549.66;10669346;27;20141;-55
2021/03/01 03:20:12;;;;;;;16.10;8.27;;;;;;;4.56;49.82;99546.34;10650137;27;20064;-54
2021/03/01 03:25:15;;;;;;;16.05;8.50;;;;;;;4.58;49.82;99547.06;10673339;27;20047;-58
2021/03/01 03:30:22;;;;;;;14.20;8.15;;;;;;;4.59;49.74;99538.34;10674245;27;20069;-53
2021/03/01 03:35:24;;;;;;;15.98;7.10;;;;;;;4.58;49.13;99549.66;10674402;27;20038;-53
2021/03/01 03:40:28;;;;;;;14.68;7.47;;;;;;;4.52;49.36;99542.25;10673372;27;20085;-53
2021/03/01 03:45:31;;;;;;;15.23;6.75;;;;;;;4.48;49.37;99551.19;10673742;27;20428;-52
2021/03/01 03:50:34;;;;;;;14.43;6.60;;;;;;;4.43;50.03;99554.06;10672971;27;20607;-53
2021/03/01 03:55:41;;;;;;;9.50;4.90;;;;;;;4.34;50.51;99562.44;10654379;27;20046;-52
2021/03/01 04:00:44;;;;;;;13.57;5.97;;;;;;;4.44;49.86;99560.97;10660144;27;20054;-54
2021/03/01 04:05:48;;;;;;;10.20;4.47;;;;;;;4.49;50.10;99569.28;10631213;27;20070;-56
2021/03/01 04:10:53;;;;;;;8.57;4.45;;;;;;;4.61;49.67;99571.13;10628952;27;20487;-54
2021/03/01 04:15:55;;;;;;;8.95;3.95;;;;;;;4.74;49.17;99578.19;10636596;27;20068;-55
2021/03/01 04:21:00;;;;;;;9.13;4.40;;;;;;;4.83;49.16;99569.78;10651826;27;20051;-52
2021/03/01 04:26:05;;;;;;;8.32;4.13;;;;;;;4.86;49.38;99561.78;10631425;27;20150;-53
2021/03/01 04:31:09;;;;;;;8.23;3.97;;;;;;;4.87;49.69;99563.47;10629330;27;20395;-52
2021/03/01 04:36:11;;;;;;;7.43;3.95;;;;;;;4.90;49.13;99573.69;10629198;27;20047;-53
2021/03/01 04:41:16;;;;;;;8.10;3.70;;;;;;;4.90;49.83;99573.69;10628909;27;20047;-54
2021/03/01 04:46:18;;;;;;;9.55;4.53;;;;;;;5.02;49.03;99574.69;10628659;27;20133;-53
2021/03/01 04:51:24;;;;;;;10.07;4.10;;;;;;;5.06;49.03;99590.00;10628333;27;20043;-53
2021/03/01 04:56:27;;;;;;;8.25;4.15;;;;;;;5.12;49.32;99587.94;10629316;27;20043;-52
2021/03/01 05:01:29;;;;;;;10.82;4.65;;;;;;;5.04;49.90;99597.06;10628602;27;20130;-54
2021/03/01 05:06:31;;;;;;;8.88;4.15;;;;;;;5.12;49.75;99598.38;10630556;27;20138;-57
2021/03/01 05:11:35;;;;;;;10.05;4.95;;;;;;;5.29;49.33;99598.91;10627825;27;20054;-52
2021/03/01 05:16:37;;;;;;;8.27;4.13;;;;;;;5.43;49.29;99600.66;10627700;27;20067;-53
2021/03/01 05:21:39;;;;;;;8.60;4.28;;;;;;;5.61;49.43;99600.38;10584179;28;20389;-54
2021/03/01 05:26:41;;;;;;;10.38;4.60;;;;;;;5.77;48.98;99611.44;10585502;28;20047;-56
2021/03/01 05:31:43;;;;;;;8.93;4.38;;;;;;;5.74;48.93;99607.28;10585592;28;20043;-52
2021/03/01 05:36:45;;;;;;;10.82;4.60;;;;;;;5.87;49.43;99607.28;10586386;28;20059;-53
2021/03/01 05:41:50;;;;;;;8.90;4.85;;;;;;;6.08;48.77;99612.03;10587502;28;20062;-52
2021/03/01 05:46:55;;;;;;;7.25;3.60;;;;;;;6.10;48.54;99603.16;10586406;28;20083;-54
2021/03/01 05:52:01;;;;;;;10.93;5.32;;;;;;;6.38;48.32;99606.50;10586597;28;20109;-55
2021/03/01 05:57:07;;;;;;;12.85;6.32;;;;;;;6.71;48.34;99603.25;10584956;28;20043;-53
2021/03/01 06:02:09;;;;;;;13.00;7.20;;;;;;;7.02;48.13;99606.31;10583901;28;20430;-52
2021/03/01 06:07:11;;;;;;;14.65;5.90;;;;;;;7.28;47.45;99605.25;10583277;28;20062;-57
2021/03/01 06:12:13;;;;;;;13.18;6.70;;;;;;;7.25;47.22;99599.44;10583314;28;20108;-53
2021/03/01 06:17:17;;;;;;;13.48;7.18;;;;;;;7.18;47.74;99603.44;10583191;28;20044;-53
2021/03/01 06:22:20;;;;;;;10.57;5.13;;;;;;;11.36;47.68;99595.69;10620222;28;20402;-54
2021/03/01 06:27:23;;;;;;;9.48;5.30;;;;;;;16.23;41.88;99592.75;10629953;28;20147;-54
2021/03/01 06:32:24;;;;;;;8.43;5.03;;;;;;;20.12;36.76;99583.75;10607789;28;20043;-55
2021/03/01 06:37:26;;;;;;;10.93;6.22;;;;;;;22.65;33.31;99589.53;10624064;28;20288;-55
2021/03/01 06:42:30;;;;;;;14.05;8.05;;;;;;;24.70;29.95;99602.47;10624836;28;20055;-54
2021/03/01 06:47:44;;;;;;;13.68;6.72;;;;;;;25.82;27.81;99605.44;10642651;27;20528;-55
2021/03/01 06:52:45;;;;;;;9.48;5.78;;;;;;;26.52;26.44;99620.81;10668686;27;20138;-54
2021/03/01 06:57:48;;;;;;;9.67;6.00;;;;;;;27.60;25.20;99620.19;10675747;27;20481;-55
2021/03/01 07:02:50;;;;;;;10.85;5.35;;;;;;;27.38;23.95;99637.09;10687490;27;20368;-54
2021/03/01 07:07:51;;;;;;;10.93;5.00;;;;;;;27.30;23.33;99627.47;10676054;27;20404;-55
2021/03/01 07:12:54;;;;;;;10.23;4.30;;;;;;;25.11;22.98;99636.69;10661516;27;20058;-55
2021/03/01 07:17:57;;;;;;;7.55;4.18;;;;;;;25.02;21.60;99638.03;10677939;27;20084;-54
2021/03/01 07:22:58;;;;;;;;;;;;;;;26.32;24.97;99625.72;10685083;27;20536;-55
2021/03/01 07:28:02;;;;;;;7.65;4.50;;;;;;;28.07;20.88;99619.88;10674553;27;20085;-54
2021/03/01 07:33:04;;;;;;;8.30;3.00;;;;;;;29.31;18.62;99624.72;10674498;27;20057;-54
2021/03/01 07:38:07;;;;;;;6.47;3.08;;;;;;;30.22;17.45;99606.78;10674395;27;20078;-53
2021/03/01 07:43:11;;;;;;;6.53;2.80;;;;;;;32.38;14.96;99598.72;10675213;27;20073;-54
2021/03/01 07:48:14;;;;;;;5.80;2.35;;;;;;;34.43;13.50;99592.63;10673371;27;20087;-54
2021/03/01 07:53:59;;;;;;;3.50;1.30;;;;;;;28.50;14.03;99602.94;10673687;27;20066;-55
2021/03/01 07:59:03;;;;;;;3.15;1.23;;;;;;;23.04;16.27;99606.50;10672223;27;20422;-54
2021/03/01 08:04:05;;;;;;;5.85;1.70;;;;;;;20.54;18.61;99622.03;10673392;27;20076;-54
2021/03/01 08:09:07;;;;;;;3.07;1.30;;;;;;;18.64;19.40;99627.75;10673473;27;20080;-62
2021/03/01 08:14:12;;;;;;;4.07;1.40;;;;;;;16.96;20.27;99627.00;10680587;27;20101;-55
2021/03/01 08:19:40;;;;;;;4.85;1.45;;;;;;;15.96;20.95;99618.66;10654576;27;20061;-54
2021/03/01 08:24:45;;;;;;;4.85;1.90;;;;;;;15.46;21.20;99616.16;10671792;27;20042;-54
2021/03/01 08:30:18;;;;;;;3.47;1.40;;;;;;;14.85;21.75;99624.28;10671725;27;20389;-52
2021/03/01 08:35:24;;;;;;;3.78;1.40;;;;;;;13.89;22.70;99629.66;10674515;27;20042;-55
2021/03/01 08:40:25;;;;;;;4.35;1.38;;;;;;;13.17;23.59;99620.06;10674946;27;20103;-55
2021/03/01 08:45:40;;;;;;;3.13;1.30;;;;;;;12.74;24.02;99603.94;10671243;27;20043;-55
2021/03/01 08:50:42;;;;;;;3.15;1.10;;;;;;;12.27;24.59;99590.81;10673735;27;20059;-53
2021/03/01 08:55:44;;;;;;;3.55;1.10;;;;;;;11.94;24.89;99585.09;10676048;27;20046;-54
2021/03/01 09:00:52;;;;;;;5.28;1.20;;;;;;;11.85;25.38;99577.22;10670588;27;20050;-53
2021/03/01 09:06:01;;;;;;;3.92;1.13;;;;;;;11.70;25.66;99582.91;10670791;27;20087;-53
2021/03/01 09:11:05;;;;;;;3.78;1.20;;;;;;;11.50;25.93;99576.81;10675303;27;20463;-53
2021/03/01 09:16:10;;;;;;;3.42;1.05;;;;;;;11.14;26.27;99564.34;10669374;27;20340;-52
2021/03/01 09:21:16;;;;;;;2.83;1.10;;;;;;;10.93;26.87;99573.22;10671162;27;20062;-52
2021/03/01 09:26:20;;;;;;;3.38;1.17;;;;;;;10.72;27.15;99577.72;10670265;27;20133;-53
2021/03/01 09:31:23;;;;;;;3.22;1.00;;;;;;;10.99;27.18;99572.66;10670210;27;20059;-54
2021/03/01 09:36:29;;;;;;;2.37;0.90;;;;;;;10.85;27.15;99564.31;10669973;27;20069;-53
2021/03/01 09:41:35;;;;;;;2.95;1.00;;;;;;;10.51;27.63;99573.38;10670227;27;20043;-53
2021/03/01 09:46:38;;;;;;;5.05;1.30;;;;;;;10.50;27.87;99579.59;10669449;27;20049;-53
2021/03/01 09:51:40;;;;;;;2.65;0.90;;;;;;;10.45;27.95;99567.81;10669693;27;20046;-53
2021/03/01 09:56:43;;;;;;;2.63;1.00;;;;;;;10.05;28.31;99556.28;10671043;27;20061;-51
2021/03/01 10:01:46;;;;;;;3.22;1.05;;;;;;;9.60;29.03;99553.09;10668874;27;20046;-53
2021/03/01 10:06:47;;;;;;;2.75;0.90;;;;;;;9.43;29.50;99559.78;10669310;27;20054;-53
2021/03/01 10:11:49;;;;;;;4.95;1.20;;;;;;;9.45;29.67;99547.34;10669111;27;20130;-54
2021/03/01 10:16:53;;;;;;;2.75;1.10;;;;;;;9.21;30.22;99551.06;10669034;27;20058;-53
2021/03/01 10:22:01;;;;;;;2.95;0.90;;;;;;;9.01;30.45;99538.72;10669397;27;20107;-52
2021/03/01 10:27:04;;;;;;;3.08;0.98;;;;;;;8.69;30.97;99539.53;10675761;27;20078;-52
2021/03/01 10:32:18;;;;;;;2.03;0.70;;;;;;;8.82;31.07;99543.78;10679032;27;20042;-53
2021/03/01 10:37:23;;;;;;;3.03;1.00;;;;;;;8.86;31.13;99547.81;10660503;27;20043;-53
2021/03/01 10:42:26;;;;;;;4.20;1.05;;;;;;;8.59;31.94;99543.00;10682117;27;20095;-54
2021/03/01 10:47:32;;;;;;;2.33;0.85;;;;;;;8.82;31.70;99533.31;10676973;27;20095;-53
2021/03/01 10:52:35;;;;;;;2.38;0.80;;;;;;;8.87;31.46;99520.69;10678995;27;20106;-55
2021/03/01 10:57:36;;;;;;;2.77;0.90;;;;;;;8.82;31.99;99512.34;10677116;27;20051;-54
2021/03/01 11:02:39;;;;;;;2.58;1.00;;;;;;;8.70;32.22;99517.59;10677147;27;20043;-53
2021/03/01 11:07:41;;;;;;;2.85;0.80;;;;;;;8.92;32.25;99508.84;10683355;27;20038;-56
2021/03/01 11:12:42;;;;;;;2.63;0.90;;;;;;;9.14;32.01;99499.22;10676318;27;20043;-52
2021/03/01 11:17:45;;;;;;;2.22;0.90;;;;;;;9.08;32.17;99492.69;10677508;27;20402;-53
2021/03/01 11:22:46;;;;;;;3.17;1.00;;;;;;;8.73;32.78;99491.16;10677863;27;20080;-53
2021/03/01 11:27:48;;;;;;;3.22;1.15;;;;;;;8.68;33.46;99471.50;10675532;27;20141;-55
2021/03/01 11:32:51;;;;;;;5.82;0.95;;;;;;;8.84;33.45;99463.25;10675036;27;20043;-52
2021/03/01 11:37:52;;;;;;;2.42;0.70;;;;;;;8.87;33.48;99460.38;10673910;27;20051;-54
2021/03/01 11:42:54;;;;;;;2.13;0.73;;;;;;;8.98;33.28;99461.13;10674462;27;20042;-51
2021/03/01 11:47:57;;;;;;;2.13;0.70;;;;;;;9.01;33.35;99438.25;10677543;27;20050;-54
2021/03/01 11:52:58;;;;;;;2.13;0.70;;;;;;;8.99;33.47;99435.78;10678237;27;20104;-53
2021/03/01 11:58:00;;;;;;;2.97;0.95;;;;;;;8.92;33.47;99418.88;10675281;27;20057;-52
2021/03/01 12:03:03;;;;;;;2.15;0.70;;;;;;;8.79;34.11;99413.81;10674595;27;20231;-53
2021/03/01 12:08:05;;;;;;;1.80;0.60;;;;;;;8.96;33.94;99412.44;10673813;27;20084;-55
2021/03/01 12:13:07;;;;;;;2.08;0.75;;;;;;;8.89;34.01;99398.16;10674386;27;20186;-52
2021/03/01 12:18:09;;;;;;;4.97;1.20;;;;;;;9.06;34.06;99392.34;10673013;27;20062;-52
2021/03/01 12:23:11;;;;;;;2.20;0.70;;;;;;;9.10;34.01;99399.00;10677846;27;20046;-52
2021/03/01 12:28:13;;;;;;;3.17;1.10;;;;;;;8.87;34.26;99395.69;10675074;27;20146;-53
2021/03/01 12:33:16;;;;;;;3.97;1.30;;;;;;;8.84;34.44;99410.84;10654894;27;20068;-52
2021/03/01 12:38:17;;;;;;;2.63;0.75;;;;;;;8.56;34.76;99410.47;10673311;27;20050;-53
2021/03/01 12:43:19;;;;;;;2.10;0.60;;;;;;;8.35;35.30;99389.44;10675693;27;20118;-54
2021/03/01 12:48:22;;;;;;;3.33;0.75;;;;;;;8.27;35.21;99373.50;10674361;27;20058;-52
2021/03/01 12:53:24;;;;;;;1.98;0.70;;;;;;;8.10;35.71;99348.69;10673403;27;20042;-53
2021/03/01 12:58:25;;;;;;;2.80;0.73;;;;;;;7.98;35.84;99340.03;10673026;27;20421;-53
2021/03/01 13:03:28;;;;;;;2.33;0.82;;;;;;;8.04;35.61;99329.06;10672820;27;20042;-54
2021/03/01 13:08:30;;;;;;;2.60;0.82;;;;;;;7.97;36.09;99348.00;10676071;27;20050;-56
2021/03/01 13:13:31;;;;;;;4.30;0.75;;;;;;;7.83;36.21;99367.44;10672852;27;20042;-54
2021/03/01 13:18:34;;;;;;;1.90;0.70;;;;;;;7.54;36.15;99359.22;10671295;27;20061;-52
2021/03/01 13:23:37;;;;;;;3.05;1.00;;;;;;;7.46;36.80;99349.38;10671531;27;20039;-53
2021/03/01 13:28:39;;;;;;;2.93;1.00;;;;;;;7.52;36.47;99346.28;10671254;27;20106;-52
2021/03/01 13:33:43;;;;;;;3.22;1.00;;;;;;;7.40;36.91;99349.88;10670328;27;20102;-52
2021/03/01 13:38:45;;;;;;;2.67;0.70;;;;;;;7.13;37.46;99329.28;10671045;27;20050;-51
2021/03/01 13:43:46;;;;;;;2.90;1.00;;;;;;;6.99;37.88;99334.72;10670462;27;20114;-52
2021/03/01 13:48:49;;;;;;;2.70;0.90;;;;;;;7.11;37.89;99303.28;10670131;27;20057;-53
2021/03/01 13:53:51;;;;;;;4.40;1.35;;;;;;;7.11;38.27;99291.97;10669471;27;20074;-54
2021/03/01 13:58:52;;;;;;;2.95;0.98;;;;;;;7.16;38.42;99279.38;10651025;27;20061;-52
2021/03/01 14:03:56;;;;;;;3.13;1.00;;;;;;;7.13;38.40;99282.22;10668917;27;20383;-60
2021/03/01 14:08:58;;;;;;;4.05;0.95;;;;;;;7.03;38.92;99274.28;10669305;27;20107;-52
2021/03/01 14:13:59;;;;;;;2.80;0.88;;;;;;;7.06;38.64;99263.59;10668645;27;20050;-52
2021/03/01 14:19:02;;;;;;;3.33;1.00;;;;;;;7.02;38.87;99233.44;10670417;27;20050;-52
2021/03/01 14:24:05;;;;;;;3.13;0.90;;;;;;;6.90;39.19;99243.03;10668742;27;20043;-54
2021/03/01 14:29:07;;;;;;;4.78;1.00;;;;;;;6.79;39.45;99243.03;10672235;27;20089;-56
2021/03/01 14:34:10;;;;;;;4.72;0.98;;;;;;;6.71;40.10;99239.34;10669067;27;20390;-53
2021/03/01 14:39:11;;;;;;;3.40;1.17;;;;;;;6.66;39.69;99224.84;10668344;27;20131;-53
2021/03/01 14:44:13;;;;;;;3.10;1.10;;;;;;;6.62;40.09;99191.25;10667919;27;20081;-53
2021/03/01 14:49:16;;;;;;;3.08;1.08;;;;;;;6.53;40.18;99197.19;10669248;27;20052;-53
2021/03/01 14:54:17;;;;;;;3.15;0.95;;;;;;;6.44;40.82;99191.72;10667658;27;20038;-52
2021/03/01 14:59:19;;;;;;;3.15;1.40;;;;;;;6.30;40.71;99183.28;10668060;27;20061;-56
2021/03/01 15:04:23;;;;;;;3.45;1.02;;;;;;;6.19;41.14;99173.66;10667702;27;20070;-54
2021/03/01 15:09:24;;;;;;;3.03;1.00;;;;;;;6.19;41.07;99168.44;10668688;27;20054;-52
2021/03/01 15:14:26;;;;;;;3.05;0.98;;;;;;;6.25;41.15;99173.19;10670333;27;20111;-54
2021/03/01 15:19:29;;;;;;;2.95;0.95;;;;;;;6.19;41.73;99173.66;10657100;27;20055;-54
2021/03/01 15:24:30;;;;;;;2.60;0.88;;;;;;;6.21;41.33;99148.25;10677237;27;20042;-53
2021/03/01 15:29:32;;;;;;;2.95;0.88;;;;;;;6.18;41.56;99151.09;10675667;27;20043;-53
2021/03/01 15:34:35;;;;;;;2.92;1.23;;;;;;;6.20;42.08;99138.78;10676053;27;20039;-52
2021/03/01 15:39:37;;;;;;;2.22;0.75;;;;;;;6.06;42.40;99107.66;10674759;27;20051;-53
2021/03/01 15:44:39;;;;;;;3.38;1.08;;;;;;;5.95;42.39;99111.94;10675271;27;20038;-61
2021/03/01 15:49:41;;;;;;;2.42;0.70;;;;;;;5.96;42.66;99115.34;10650110;27;20078;-52
2021/03/01 15:54:43;;;;;;;2.83;0.85;;;;;;;6.06;42.38;99125.94;10637822;27;20065;-52
2021/03/01 15:59:45;;;;;;;2.75;1.17;;;;;;;6.00;43.08;99106.34;10630721;27;20055;-52
2021/03/01 16:04:47;;;;;;;2.97;1.05;;;;;;;5.88;42.82;99107.25;10632865;27;20072;-51
2021/03/01 16:09:49;;;;;;;2.80;0.82;;;;;;;5.88;43.09;99092.44;10630998;27;20502;-54
2021/03/01 16:14:51;;;;;;;2.72;0.90;;;;;;;5.69;43.58;99085.16;10630454;27;20042;-55
2021/03/01 16:19:54;;;;;;;2.97;1.10;;;;;;;5.65;43.90;99085.50;10633300;27;20429;-52
2021/03/01 16:24:56;;;;;;;2.90;1.05;;;;;;;5.73;43.83;99083.16;10654102;27;20042;-52
2021/03/01 16:29:57;;;;;;;2.75;0.90;;;;;;;5.79;43.90;99080.09;10644890;27;20526;-52
2021/03/01 16:35:00;;;;;;;2.90;0.88;;;;;;;5.77;43.86;99074.16;10629526;27;20101;-52
2021/03/01 16:40:02;;;;;;;2.45;1.00;;;;;;;5.82;44.14;99073.78;10630332;27;20507;-53
2021/03/01 16:45:04;;;;;;;1.73;0.63;;;;;;;5.93;43.88;99056.41;10628913;27;20103;-52
2021/03/01 16:50:08;;;;;;;3.08;1.00;;;;;;;5.85;44.52;99035.28;10629412;27;20047;-53
2021/03/01 16:55:12;;;;;;;2.47;0.73;;;;;;;5.88;44.47;99039.41;10611799;27;20039;-52
2021/03/01 17:00:16;;;;;;;2.97;1.00;;;;;;;5.84;44.63;99033.59;10629399;27;20108;-60
2021/03/01 17:05:19;;;;;;;2.35;0.88;;;;;;;5.85;44.83;99035.28;10631799;27;20039;-52
2021/03/01 17:10:22;;;;;;;4.28;1.00;;;;;;;5.78;45.11;99039.28;10632980;27;20198;-52
2021/03/01 17:15:25;;;;;;;3.88;0.90;;;;;;;5.75;45.31;99036.91;10627753;27;20138;-52
2021/03/01 17:20:28;;;;;;;2.40;0.70;;;;;;;5.72;45.75;99032.75;10628890;27;20088;-53
2021/03/01 17:25:31;;;;;;;2.65;0.80;;;;;;;5.77;45.94;99020.22;10627796;27;20133;-52
2021/03/01 17:30:33;;;;;;;3.60;1.10;;;;;;;5.89;46.02;99022.84;10627219;27;20139;-52
2021/03/01 17:35:36;;;;;;;2.40;0.80;;;;;;;5.98;45.91;99009.94;10627235;27;20035;-52
2021/03/01 17:40:38;;;;;;;3.27;1.27;;;;;;;6.02;46.11;98994.88;10627207;27;20070;-51
2021/03/01 17:45:40;;;;;;;2.25;0.80;;;;;;;6.07;46.38;98989.31;10637195;27;20483;-51
2021/03/01 17:50:46;;;;;;;4.50;1.17;;;;;;;6.09;46.65;98982.19;10669846;27;20367;-52
2021/03/01 17:55:55;;;;;;;1.98;0.75;;;;;;;6.14;46.40;98977.44;10669744;27;20050;-53
2021/03/01 18:01:03;;;;;;;3.08;0.90;;;;;;;6.18;46.47;98953.56;10645462;27;20395;-52
2021/03/01 18:06:06;;;;;;;3.97;1.20;;;;;;;6.25;46.45;98953.09;10642907;27;20488;-52
2021/03/01 18:11:08;;;;;;;3.30;1.00;;;;;;;6.28;46.74;98938.03;10646046;27;20436;-51
2021/03/01 18:16:10;;;;;;;3.20;1.17;;;;;;;6.18;46.89;98927.47;10608630;27;20300;-53
2021/03/01 18:21:13;;;;;;;4.30;1.00;;;;;;;6.11;47.10;98907.22;10629828;27;20491;-53
2021/03/01 18:26:15;;;;;;;3.00;0.80;;;;;;;6.24;47.33;98905.28;10626185;27;20057;-55
2021/03/01 18:31:20;;;;;;;3.00;0.80;;;;;;;6.22;47.60;98896.78;10637809;27;20513;-53
2021/03/01 18:36:27;;;;;;;2.83;0.85;;;;;;;6.18;47.84;98892.72;10625395;28;20043;-53
2021/03/01 18:41:30;;;;;;;2.80;0.90;;;;;;;6.26;47.76;98887.72;10607706;28;20047;-51
2021/03/01 18:46:32;;;;;;;3.47;1.20;;;;;;;6.29;47.73;98873.59;10608403;28;20061;-52
2021/03/01 18:51:35;;;;;;;3.70;1.10;;;;;;;6.31;47.71;98874.28;10637841;27;20050;-54
2021/03/01 18:56:37;;;;;;;3.57;1.00;;;;;;;6.30;47.68;98868.25;10636134;27;20353;-52
2021/03/01 19:01:39;;;;;;;6.18;1.40;;;;;;;6.33;47.71;98861.97;10642531;27;20399;-52
2021/03/01 19:06:42;;;;;;;2.55;0.90;;;;;;;6.33;47.60;98841.06;10646510;27;20047;-52
2021/03/01 19:11:44;;;;;;;4.00;1.25;;;;;;;6.32;47.63;98835.03;10633125;27;20085;-52
2021/03/01 19:16:45;;;;;;;2.85;1.08;;;;;;;6.39;48.01;98825.75;10633595;27;20085;-52
2021/03/01 19:21:48;;;;;;;3.38;1.20;;;;;;;6.37;47.88;98812.00;10615654;27;20066;-52
2021/03/01 19:26:50;;;;;;;4.50;1.25;;;;;;;6.40;47.94;98818.72;10632330;27;20368;-53
2021/03/01 19:31:51;;;;;;;6.65;1.25;;;;;;;6.44;47.89;98810.53;10632535;27;20533;-53
2021/03/01 19:36:57;;;;;;;3.75;1.45;;;;;;;6.39;47.98;98799.63;10633127;27;20047;-51
2021/03/01 19:41:58;;;;;;;6.72;1.27;;;;;;;6.40;48.29;98796.09;10632542;27;20074;-52
2021/03/01 19:47:00;;;;;;;3.13;1.30;;;;;;;6.44;48.15;98818.38;10633950;27;20086;-52
2021/03/01 19:52:05;;;;;;;4.47;1.15;;;;;;;6.45;48.44;98816.56;10632672;27;20086;-51
2021/03/01 19:57:07;;;;;;;4.38;1.10;;;;;;;6.47;48.68;98795.59;10631430;27;20081;-52
2021/03/01 20:02:09;;;;;;;3.38;1.00;;;;;;;6.49;48.48;98810.13;10630989;27;20042;-53
2021/03/01 20:07:12;;;;;;;3.40;1.20;;;;;;;6.48;48.66;98784.19;10631089;27;20055;-54
2021/03/01 20:12:14;;;;;;;4.20;1.40;;;;;;;6.56;48.44;98763.47;10630711;27;20163;-52
2021/03/01 20:17:15;;;;;;;3.97;1.10;;;;;;;6.51;48.99;98747.38;10631048;27;20128;-53
2021/03/01 20:22:18;;;;;;;5.43;1.85;;;;;;;6.41;49.35;98755.97;10630441;27;20093;-53
2021/03/01 20:27:20;;;;;;;3.70;1.33;;;;;;;6.49;48.75;98764.94;10630946;27;20096;-53
2021/03/01 20:32:21;;;;;;;5.03;1.25;;;;;;;6.52;49.16;98749.84;10631091;27;20039;-54
2021/03/01 20:37:24;;;;;;;2.90;1.30;;;;;;;6.58;48.96;98730.22;10630366;27;20075;-52
2021/03/01 20:42:26;;;;;;;5.28;1.10;;;;;;;6.60;49.21;98718.69;10630092;27;20046;-54
2021/03/01 20:47:28;;;;;;;3.63;1.20;;;;;;;6.68;48.73;98720.63;10630144;27;20111;-55
2021/03/01 20:52:30;;;;;;;4.10;1.30;;;;;;;6.67;48.70;98713.78;10630667;27;20047;-58
2021/03/01 20:57:32;;;;;;;3.15;1.08;;;;;;;6.56;49.16;98690.34;10630660;27;20515;-53
2021/03/01 21:02:34;;;;;;;4.78;1.55;;;;;;;6.65;48.75;98700.84;10629171;27;20058;-61
2021/03/01 21:07:37;;;;;;;6.10;2.03;;;;;;;6.64;48.84;98703.59;10628808;27;20070;-52
2021/03/01 21:12:39;;;;;;;3.35;1.00;;;;;;;6.62;49.32;98701.13;10626711;27;20095;-54
2021/03/01 21:17:42;;;;;;;3.92;1.42;;;;;;;6.55;49.69;98688.69;10630169;27;20374;-54
2021/03/01 21:22:51;;;;;;;4.37;1.43;;;;;;;6.52;50.06;98691.56;10629634;27;20087;-52
2021/03/01 21:27:55;;;;;;;4.45;1.42;;;;;;;6.56;49.96;98674.69;10627863;27;20042;-53
2021/03/01 21:32:58;;;;;;;4.93;1.90;;;;;;;6.60;49.76;98665.66;10627845;27;20051;-52
2021/03/01 21:38:01;;;;;;;3.87;1.50;;;;;;;6.61;50.04;98672.50;10609858;27;20050;-53
2021/03/01 21:43:03;;;;;;;3.92;1.90;;;;;;;6.56;49.67;98659.00;10627307;27;20059;-55
2021/03/01 21:48:08;;;;;;;5.30;1.70;;;;;;;6.59;49.84;98648.31;10628333;27;20051;-54
2021/03/01 21:53:14;;;;;;;4.43;1.42;;;;;;;6.69;49.91;98628.28;10627430;27;20080;-52
2021/03/01 21:58:16;;;;;;;5.15;1.65;;;;;;;6.74;49.57;98633.09;10626818;27;20043;-54
2021/03/01 22:03:22;;;;;;;5.20;1.60;;;;;;;6.75;49.83;98622.53;10628119;27;20039;-53
2021/03/01 22:08:25;;;;;;;5.57;1.83;;;;;;;6.71;49.83;98621.13;10633004;27;20543;-55
2021/03/01 22:13:27;;;;;;;3.53;1.38;;;;;;;6.61;50.64;98596.78;10626237;27;20480;-52
2021/03/01 22:18:32;;;;;;;4.72;2.10;;;;;;;6.59;50.32;98575.19;10625538;27;20066;-55
2021/03/01 22:23:35;;;;;;;4.32;1.50;;;;;;;6.58;50.30;98600.47;10625891;27;20364;-54
2021/03/01 22:28:38;;;;;;;4.43;1.75;;;;;;;6.60;50.25;98576.88;10625377;27;20050;-55
2021/03/01 22:33:44;;;;;;;5.03;1.80;;;;;;;6.59;50.29;98567.34;10626012;28;20035;-54
2021/03/01 22:38:51;;;;;;;5.55;1.80;;;;;;;6.61;50.74;98573.28;10625502;28;20058;-54
2021/03/01 22:44:01;;;;;;;5.53;1.80;;;;;;;6.64;50.55;98567.78;10625529;28;20468;-54
2021/03/01 22:49:06;;;;;;;6.80;1.60;;;;;;;6.75;50.10;98574.72;10626124;28;20047;-54
2021/03/01 22:54:10;;;;;;;5.28;1.90;;;;;;;6.81;50.24;98563.72;10625844;28;20133;-53
2021/03/01 22:59:12;;;;;;;3.63;1.48;;;;;;;6.76;50.48;98556.28;10607095;28;20130;-54
2021/03/01 23:04:14;;;;;;;3.67;1.50;;;;;;;6.78;50.63;98554.38;10625945;28;20081;-54
2021/03/01 23:09:18;;;;;;;4.60;1.80;;;;;;;6.75;50.48;98543.38;10624888;28;20051;-52
2021/03/01 23:14:22;;;;;;;5.57;1.83;;;;;;;6.76;50.59;98535.38;10624970;28;20077;-53
2021/03/01 23:19:24;;;;;;;3.90;1.50;;;;;;;6.85;50.81;98507.63;10627022;28;20063;-60
2021/03/01 23:24:26;;;;;;;3.83;1.50;;;;;;;6.86;50.59;98504.84;10626976;28;20051;-52
2021/03/01 23:29:28;;;;;;;4.00;1.65;;;;;;;6.88;50.86;98479.44;10625578;28;20047;-54
2021/03/01 23:34:30;;;;;;;5.10;1.90;;;;;;;6.97;50.80;98484.81;10625670;27;20142;-53
2021/03/01 23:39:35;;;;;;;4.20;1.30;;;;;;;6.94;50.45;98462.38;10634583;27;20065;-52